EDT,Max TemperatureF,Mean TemperatureF,Min TemperatureF,Max Dew PointF,MeanDew PointF,Min DewpointF,Max Humidity, Mean Humidity, Min Humidity, Max Sea Level PressureIn, Mean Sea Level PressureIn, Min Sea Level PressureIn, Max VisibilityMiles, Mean VisibilityMiles, Min VisibilityMiles, Max Wind SpeedMPH, Mean Wind SpeedMPH, Max Gust SpeedMPH,PrecipitationIn, CloudCover, Events, WindDirDegrees
2013-4-1,39,35,30,36,31,21,92,72,52,29.86,29.58,29.45,10,5,1,18,6,28,0.37,8,Rain-Snow,150
2013-4-2,30,24,18,21,13,7,69,56,42,29.67,29.62,29.54,10,8,0,23,13,32,T,7,Snow,264
2013-4-3,32,24,15,13,9,3,73,58,42,29.83,29.70,29.62,10,10,6,24,13,37,T,6,Snow,268
2013-4-4,46,35,24,13,7,1,55,36,16,30.02,29.93,29.84,10,10,10,21,11,29,0.00,1,,257
2013-4-5,55,42,29,28,24,16,75,54,32,29.89,29.73,29.63,10,10,10,17,7,22,0.00,4,,278
2013-4-6,34,26,17,22,7,-2,69,46,22,30.28,29.96,29.69,10,10,10,24,12,36,0.00,2,,312
2013-4-7,39,26,13,32,15,5,84,57,29,30.31,30.13,29.88,10,10,9,17,7,30,0.04,5,Rain,186
2013-4-8,50,38,26,37,32,24,92,71,49,30.14,29.97,29.83,10,10,6,16,6,22,0.01,5,Rain,282
2013-4-9,37,31,25,34,31,24,92,87,82,30.15,30.01,29.91,10,4,0,12,3,16,0.28,7,Fog-Rain-Snow,130
2013-4-10,48,37,26,36,33,25,92,71,49,29.93,29.89,29.86,10,9,1,12,3,14,T,7,Rain,298
2013-4-11,40,31,22,24,12,7,92,59,25,30.18,30.01,29.88,10,10,10,21,9,28,0.00,1,,341
2013-4-12,42,29,15,29,22,12,85,57,29,30.27,30.14,30.01,10,6,0,15,4,21,0.16,5,Fog-Snow,111
2013-4-13,42,29,15,33,30,28,85,57,29,29.99,29.85,29.80,10,6,1,15,4,21,0.16,8,Rain-Snow,36
2013-4-14,42,38,33,35,32,30,92,81,70,30.15,29.96,29.87,10,6,2,9,3,14,0.01,8,Rain-Snow,119
2013-4-15,51,40,29,34,31,26,96,68,39,30.37,30.30,30.17,10,8,0,9,2,14,0.00,6,Fog,331
2013-4-16,51,43,34,40,34,30,89,71,52,30.38,30.14,29.83,10,10,6,22,11,32,0.04,6,Rain,192
2013-4-17,55,40,25,41,25,12,76,49,22,30.36,30.06,29.84,10,10,10,24,10,31,0.00,2,,295
2013-4-18,48,36,23,25,19,13,75,50,25,30.48,30.33,30.07,10,10,7,22,6,32,T,4,Rain,180
2013-4-19,71,57,42,57,45,26,90,68,45,30.01,29.81,29.57,10,10,10,24,13,36,0.00,6,,198
2013-4-20,61,49,36,57,41,22,93,65,36,30.05,29.66,29.51,10,7,2,22,10,36,0.38,7,Rain,261
2013-4-21,46,34,22,25,16,4,81,50,19,30.71,30.41,30.08,10,10,10,18,8,24,0.00,3,,316
2013-4-22,53,36,18,19,12,5,91,54,16,30.83,30.74,30.66,10,10,10,13,4,24,0.00,0,,166
2013-4-23,55,40,24,36,21,7,88,52,16,30.67,30.51,30.30,10,10,10,14,5,21,0.00,2,,148
2013-4-24,54,48,42,54,46,37,96,89,82,30.27,29.94,29.75,10,5,1,13,6,17,0.01,8,Rain,92
2013-4-25,56,42,28,46,39,27,100,68,35,30.29,29.91,29.73,10,7,2,20,7,30,0.04,5,Rain,212
2013-4-26,59,42,24,28,24,19,100,62,23,30.45,30.40,30.31,10,10,10,12,4,21,0.00,0,,76
2013-4-27,63,44,25,29,22,12,92,53,14,30.44,30.36,30.27,10,10,10,14,3,17,0.00,0,,10
2013-4-28,68,47,25,34,26,19,92,54,16,30.34,30.28,30.20,10,10,10,12,2,16,0.00,0,,167
2013-4-29,71,51,31,34,29,24,92,55,17,30.28,30.23,30.17,10,10,10,10,3,18,0.00,0,,184
2013-4-30,73,52,30,38,32,28,92,56,20,30.36,30.30,30.26,10,10,10,16,5,21,0.00,0,,156